Harold B Dodd — WDI4802 — position and weather

sailwx.info

Track history (hours):
 
Tides and Currents Weather Stations Pressure Air Temp Water Temp Dewpoint Dewpoint Depression Visibility Wind Speed Wind Dir Waves Ship Positions

Harold B Dodd

Owner: ACBL River Operations LLC, Jeffersonville, IN. More information available from US FCC via Universal Licensing System and Coast Guard Vessel Documentation Center.

Last reported at 2018-Jul-17 00:01 UTC. Time now 2018-Jul-20 10:50 UTC.
Position N 32°49' W 091°09'.

Length 57 m; draft 2.9 m.

Type: Towing. MMSI: 367702150.

Date/timePositionNaut miles runAvg speedWind from/ knotsBaromVisibWave heightAir tempDewpointWater temp
2018-Jul-17 00:01N 32°49' W 091°09'2 4.4
2018-Jul-16 23:29N 32°46' W 091°09'3 2.9
2018-Jul-16 22:24N 32°44' W 091°07'2 5.3
2018-Jul-16 22:01N 32°44' W 091°04'3 3.9
2018-Jul-16 21:13N 32°41' W 091°05'1 5.1
2018-Jul-16 21:01N 32°41' W 091°06'2 4.5
2018-Jul-16 20:30N 32°40' W 091°08'2 4.2
2018-Jul-16 19:59N 32°38' W 091°09'2 4.7
2018-Jul-16 19:30N 32°36' W 091°08'2 4.3
2018-Jul-16 19:00N 32°34' W 091°06'2 4.2
2018-Jul-16 18:31N 32°32' W 091°06'3 5.1
2018-Jul-16 18:01N 32°29' W 091°07'2 4.6
2018-Jul-16 17:30N 32°27' W 091°05'2 4.7
2018-Jul-16 17:01N 32°26' W 091°03'2 4.7
2018-Jul-16 16:30N 32°25' W 091°00'2 3.9
2018-Jul-16 16:01N 32°23' W 090°60'2 4.4
2018-Jul-16 15:30N 32°21' W 090°60'2 4.7
2018-Jul-16 15:00N 32°21' W 090°57'2 4.5
2018-Jul-16 14:31N 32°20' W 090°55'2 3.7
2018-Jul-16 14:00N 32°18' W 090°55'2 3.1
2018-Jul-16 13:31N 32°17' W 090°56'2 4.2
2018-Jul-16 13:01N 32°16' W 090°58'2 4.7
2018-Jul-16 12:31N 32°14' W 090°59'2 4.9
2018-Jul-16 12:01N 32°11' W 090°60'2 4.3
2018-Jul-16 11:30N 32°09' W 091°00'2 4.2
2018-Jul-16 11:01N 32°07' W 091°02'2 4.4
2018-Jul-16 10:30N 32°08' W 091°04'2 4.2
2018-Jul-16 10:00N 32°08' W 091°07'2 4.6
2018-Jul-16 09:29N 32°06' W 091°05'2 4.6
2018-Jul-16 09:00N 32°04' W 091°04'2 4.8
2018-Jul-16 08:30N 32°01' W 091°04'7 4.5
2018-Jul-16 06:59N 31°58' W 091°11'6 4.9
2018-Jul-16 05:48N 31°53' W 091°15'2 4.0
2018-Jul-16 05:15N 31°51' W 091°17'3 4.3
2018-Jul-16 04:29N 31°51' W 091°21'6 4.6
2018-Jul-16 03:17N 31°45' W 091°22'  
2018-Jul-12 10:41N 31°43' W 091°23'6 8.3
2018-Jul-12 09:55N 31°49' W 091°21'9 7.6
2018-Jul-12 08:47N 31°54' W 091°12'4 8.4
2018-Jul-12 08:19N 31°57' W 091°11'3 7.3
2018-Jul-12 07:55N 31°59' W 091°09'3 7.6
2018-Jul-12 07:30N 32°00' W 091°05'5 7.7
2018-Jul-12 06:55N 32°05' W 091°04'3 8.1
2018-Jul-12 06:30N 32°07' W 091°07'4 7.5
2018-Jul-12 06:00N 32°07' W 091°02'4 7.8
2018-Jul-12 05:30N 32°11' W 090°60'4 8.6
2018-Jul-12 05:00N 32°15' W 090°59'4 8.5
2018-Jul-12 04:30N 32°18' W 090°55'3 5.8
2018-Jul-12 04:00N 32°21' W 090°56'4 8.2
2018-Jul-12 03:30N 32°22' W 091°00'4 7.5
2018-Jul-12 03:00N 32°25' W 091°01'4 8.5
2018-Jul-12 02:30N 32°27' W 091°05'4 7.9
2018-Jul-12 02:00N 32°31' W 091°06'4 7.9
2018-Jul-12 01:30N 32°35' W 091°08'4 7.8
2018-Jul-12 00:56N 32°39' W 091°09'  
Track history (hours):
 
Tides and Currents Weather Stations Pressure Air Temp Water Temp Dewpoint Dewpoint Depression Visibility Wind Speed Wind Dir Waves Ship Positions

Harold B Dodd

Owner: ACBL River Operations LLC, Jeffersonville, IN. More information available from US FCC via Universal Licensing System and Coast Guard Vessel Documentation Center.

Last reported at 2018-Jul-17 00:01 UTC. Time now 2018-Jul-20 10:50 UTC.
Position N 32°49' W 091°09'.

Length 57 m; draft 2.9 m.

Type: Towing. MMSI: 367702150.

Date/timePositionNaut miles runAvg speedWind from/ knotsBaromVisibWave heightAir tempDewpointWater temp
2018-Jul-17 00:01N 32°49' W 091°09'2 4.4
2018-Jul-16 23:29N 32°46' W 091°09'3 2.9
2018-Jul-16 22:24N 32°44' W 091°07'2 5.3
2018-Jul-16 22:01N 32°44' W 091°04'3 3.9
2018-Jul-16 21:13N 32°41' W 091°05'1 5.1
2018-Jul-16 21:01N 32°41' W 091°06'2 4.5
2018-Jul-16 20:30N 32°40' W 091°08'2 4.2
2018-Jul-16 19:59N 32°38' W 091°09'2 4.7
2018-Jul-16 19:30N 32°36' W 091°08'2 4.3
2018-Jul-16 19:00N 32°34' W 091°06'2 4.2
2018-Jul-16 18:31N 32°32' W 091°06'3 5.1
2018-Jul-16 18:01N 32°29' W 091°07'2 4.6
2018-Jul-16 17:30N 32°27' W 091°05'2 4.7
2018-Jul-16 17:01N 32°26' W 091°03'2 4.7
2018-Jul-16 16:30N 32°25' W 091°00'2 3.9
2018-Jul-16 16:01N 32°23' W 090°60'2 4.4
2018-Jul-16 15:30N 32°21' W 090°60'2 4.7
2018-Jul-16 15:00N 32°21' W 090°57'2 4.5
2018-Jul-16 14:31N 32°20' W 090°55'2 3.7
2018-Jul-16 14:00N 32°18' W 090°55'2 3.1
2018-Jul-16 13:31N 32°17' W 090°56'2 4.2
2018-Jul-16 13:01N 32°16' W 090°58'2 4.7
2018-Jul-16 12:31N 32°14' W 090°59'2 4.9
2018-Jul-16 12:01N 32°11' W 090°60'2 4.3
2018-Jul-16 11:30N 32°09' W 091°00'2 4.2
2018-Jul-16 11:01N 32°07' W 091°02'2 4.4
2018-Jul-16 10:30N 32°08' W 091°04'2 4.2
2018-Jul-16 10:00N 32°08' W 091°07'2 4.6
2018-Jul-16 09:29N 32°06' W 091°05'2 4.6
2018-Jul-16 09:00N 32°04' W 091°04'2 4.8
2018-Jul-16 08:30N 32°01' W 091°04'7 4.5
2018-Jul-16 06:59N 31°58' W 091°11'6 4.9
2018-Jul-16 05:48N 31°53' W 091°15'2 4.0
2018-Jul-16 05:15N 31°51' W 091°17'3 4.3
2018-Jul-16 04:29N 31°51' W 091°21'6 4.6
2018-Jul-16 03:17N 31°45' W 091°22'  
2018-Jul-12 10:41N 31°43' W 091°23'6 8.3
2018-Jul-12 09:55N 31°49' W 091°21'9 7.6
2018-Jul-12 08:47N 31°54' W 091°12'4 8.4
2018-Jul-12 08:19N 31°57' W 091°11'3 7.3
2018-Jul-12 07:55N 31°59' W 091°09'3 7.6
2018-Jul-12 07:30N 32°00' W 091°05'5 7.7
2018-Jul-12 06:55N 32°05' W 091°04'3 8.1
2018-Jul-12 06:30N 32°07' W 091°07'4 7.5
2018-Jul-12 06:00N 32°07' W 091°02'4 7.8
2018-Jul-12 05:30N 32°11' W 090°60'4 8.6
2018-Jul-12 05:00N 32°15' W 090°59'4 8.5
2018-Jul-12 04:30N 32°18' W 090°55'3 5.8
2018-Jul-12 04:00N 32°21' W 090°56'4 8.2
2018-Jul-12 03:30N 32°22' W 091°00'4 7.5
2018-Jul-12 03:00N 32°25' W 091°01'4 8.5
2018-Jul-12 02:30N 32°27' W 091°05'4 7.9
2018-Jul-12 02:00N 32°31' W 091°06'4 7.9
2018-Jul-12 01:30N 32°35' W 091°08'4 7.8
2018-Jul-12 00:56N 32°39' W 091°09'  

Dump ship's entire track history